Portada
METAR-TAF:

METAR-TAF

Aeroports :

Fasa, Iran

latitud: 28-58N, longitud: 053-41E, altitud: 1383 m

Observació

L'informe es va fer fa 24 minuts, a les 08:00 UTC
Vent 6 kt del Sud
Temperatura 28°C
Humitat 27%
Pressió 1014 hPa
Visibilitat 10 km o més
Escasses núvols a una alçada de 4000 ft, Cumulus congestus.

METAR: OISF 300800Z 19006KT 9999 FEW040TCU 28/07 Q1013 A2993

Hora: 11:54 (08:24 UTC)


TAF: manca

Observacions i pronòstics meteorològics de més de 4000 aeroports (METAR i TAF).

Les estacions disponibles són els punts grocs i vermells al mapa.

Posi el ratolí al punt desitjat per veure el nom de l'estació.

Feu clic per veure les observacions i els pronòstics meteorològics.

Per canviar el mapa: feu clic els botons verds amb una creu de color negre per apropar; al botó verd amb un guió per allunyar la imatge; o en les fletxes verdes per a mapes adjacents.


METAR-TAF: